aviador You're here:

LWSK Decoded Metar

SKOPJE in FORMER MACEDONIA
Report Time2017-10-21 15:30:00
UTC Time2017-10-21 15:32:02
Flight Rules vfr VFR
Wind280° at 02 kt
W.Decomp.*RWY 34: 0.9 kt HW 1.8 kt LCW
W.Rank280° ranks 15
Current wind is below 280° avg. (3.7)
Visibility9999 m
Phenomena:N/A
Clouds:N/A
Expected CloudBase > 6,400 ft AGL from Temp-Dew spread
CeilingNone
Temp22°C (ISA +9)
Dew Point06°C (36% RH)
AAT20.4°C
QNH1016 hPa
Density Alt1,808 ft
Elevation784 ft
Report Wrong Elevation
Raw Report
METAR LWSK 211530Z 28002KT CAVOK 22/06 Q1016 NOSIG=

Extra information for LWSK:More info

Metar Taf Metar & Taf Last 4 Metars F.Rules Stats Wind Profile Meteogram Temp Stats Airport Information Weather charts Add Link Nearby VenuesMetar ALERT Operation Metar Decoded Social comments

Airport Page